sensor_id;sensor_type;location;lat;lon;timestamp;P1;durP1;ratioP1;P2;durP2;ratioP2
56667;SDS011;42542;48.360;10.958;2023-09-19T00:02:25;6.10;;;1.13;;
56667;SDS011;42542;48.360;10.958;2023-09-19T00:05:28;5.55;;;1.20;;
56667;SDS011;42542;48.360;10.958;2023-09-19T00:08:31;4.68;;;1.20;;
56667;SDS011;42542;48.360;10.958;2023-09-19T00:11:34;5.50;;;1.27;;
56667;SDS011;42542;48.360;10.958;2023-09-19T00:14:36;4.57;;;1.10;;
56667;SDS011;42542;48.360;10.958;2023-09-19T00:17:39;5.25;;;1.30;;
56667;SDS011;42542;48.360;10.958;2023-09-19T00:20:41;4.00;;;1.15;;
56667;SDS011;42542;48.360;10.958;2023-09-19T00:23:44;5.70;;;1.40;;
56667;SDS011;42542;48.360;10.958;2023-09-19T00:26:46;6.17;;;1.30;;
56667;SDS011;42542;48.360;10.958;2023-09-19T00:29:49;5.20;;;1.40;;
56667;SDS011;42542;48.360;10.958;2023-09-19T00:32:51;4.28;;;1.20;;
56667;SDS011;42542;48.360;10.958;2023-09-19T00:35:54;5.20;;;1.40;;
56667;SDS011;42542;48.360;10.958;2023-09-19T00:38:59;4.22;;;1.20;;
56667;SDS011;42542;48.360;10.958;2023-09-19T00:42:02;4.25;;;1.10;;
56667;SDS011;42542;48.360;10.958;2023-09-19T00:45:07;6.05;;;1.20;;
56667;SDS011;42542;48.360;10.958;2023-09-19T00:49:00;5.78;;;1.30;;
56667;SDS011;42542;48.360;10.958;2023-09-19T00:52:03;5.15;;;1.10;;
56667;SDS011;42542;48.360;10.958;2023-09-19T00:55:06;7.37;;;1.30;;
56667;SDS011;42542;48.360;10.958;2023-09-19T00:58:11;4.55;;;1.25;;
56667;SDS011;42542;48.360;10.958;2023-09-19T01:01:13;4.28;;;1.23;;
56667;SDS011;42542;48.360;10.958;2023-09-19T01:04:17;5.75;;;1.30;;
56667;SDS011;42542;48.360;10.958;2023-09-19T01:07:20;4.10;;;1.20;;
56667;SDS011;42542;48.360;10.958;2023-09-19T01:10:25;5.73;;;1.33;;
56667;SDS011;42542;48.360;10.958;2023-09-19T01:30:27;5.47;;;1.40;;
56667;SDS011;42542;48.360;10.958;2023-09-19T01:37:03;4.40;;;1.30;;
56667;SDS011;42542;48.360;10.958;2023-09-19T01:40:06;4.57;;;1.23;;
56667;SDS011;42542;48.360;10.958;2023-09-19T01:43:29;6.43;;;1.52;;
56667;SDS011;42542;48.360;10.958;2023-09-19T01:46:40;4.82;;;1.30;;
56667;SDS011;42542;48.360;10.958;2023-09-19T01:49:44;4.78;;;1.38;;
56667;SDS011;42542;48.360;10.958;2023-09-19T01:52:59;5.73;;;1.33;;
56667;SDS011;42542;48.360;10.958;2023-09-19T01:56:12;6.30;;;1.50;;
56667;SDS011;42542;48.360;10.958;2023-09-19T01:59:28;6.35;;;1.50;;
56667;SDS011;42542;48.360;10.958;2023-09-19T02:02:37;4.70;;;1.30;;
56667;SDS011;42542;48.360;10.958;2023-09-19T02:05:48;4.82;;;1.38;;
56667;SDS011;42542;48.360;10.958;2023-09-19T02:08:52;5.33;;;1.47;;
56667;SDS011;42542;48.360;10.958;2023-09-19T02:11:55;5.43;;;1.30;;
56667;SDS011;42542;48.360;10.958;2023-09-19T02:14:58;6.05;;;1.60;;
56667;SDS011;42542;48.360;10.958;2023-09-19T02:18:00;5.07;;;1.40;;
56667;SDS011;42542;48.360;10.958;2023-09-19T02:21:05;5.60;;;1.50;;
56667;SDS011;42542;48.360;10.958;2023-09-19T02:24:08;4.47;;;1.30;;
56667;SDS011;42542;48.360;10.958;2023-09-19T02:27:12;5.70;;;1.48;;
56667;SDS011;42542;48.360;10.958;2023-09-19T02:30:15;5.00;;;1.48;;
56667;SDS011;42542;48.360;10.958;2023-09-19T02:33:22;4.78;;;1.30;;
56667;SDS011;42542;48.360;10.958;2023-09-19T02:36:27;4.90;;;1.40;;
56667;SDS011;42542;48.360;10.958;2023-09-19T02:39:31;6.70;;;1.30;;
56667;SDS011;42542;48.360;10.958;2023-09-19T02:42:34;4.78;;;1.60;;
56667;SDS011;42542;48.360;10.958;2023-09-19T02:45:36;4.72;;;1.35;;
56667;SDS011;42542;48.360;10.958;2023-09-19T02:48:39;5.00;;;1.40;;
56667;SDS011;42542;48.360;10.958;2023-09-19T02:51:43;4.28;;;1.30;;
56667;SDS011;42542;48.360;10.958;2023-09-19T02:54:47;4.60;;;1.30;;
56667;SDS011;42542;48.360;10.958;2023-09-19T02:57:49;5.85;;;1.27;;
56667;SDS011;42542;48.360;10.958;2023-09-19T03:00:54;5.07;;;1.48;;
56667;SDS011;42542;48.360;10.958;2023-09-19T03:03:58;7.03;;;1.50;;
56667;SDS011;42542;48.360;10.958;2023-09-19T03:06:59;5.60;;;1.48;;
56667;SDS011;42542;48.360;10.958;2023-09-19T03:10:04;5.28;;;1.45;;
56667;SDS011;42542;48.360;10.958;2023-09-19T03:13:07;4.28;;;1.15;;
56667;SDS011;42542;48.360;10.958;2023-09-19T03:16:11;9.45;;;1.45;;
56667;SDS011;42542;48.360;10.958;2023-09-19T03:19:16;5.47;;;1.30;;
56667;SDS011;42542;48.360;10.958;2023-09-19T03:22:20;5.75;;;1.40;;
56667;SDS011;42542;48.360;10.958;2023-09-19T03:25:24;6.82;;;1.33;;
56667;SDS011;42542;48.360;10.958;2023-09-19T03:28:32;5.03;;;1.17;;
56667;SDS011;42542;48.360;10.958;2023-09-19T03:31:34;5.22;;;1.38;;
56667;SDS011;42542;48.360;10.958;2023-09-19T03:34:40;6.78;;;1.50;;
56667;SDS011;42542;48.360;10.958;2023-09-19T03:37:45;5.22;;;1.60;;
56667;SDS011;42542;48.360;10.958;2023-09-19T03:40:49;5.45;;;1.55;;
56667;SDS011;42542;48.360;10.958;2023-09-19T03:43:51;4.55;;;1.38;;
56667;SDS011;42542;48.360;10.958;2023-09-19T03:46:55;4.13;;;1.33;;
56667;SDS011;42542;48.360;10.958;2023-09-19T03:49:59;6.45;;;1.38;;
56667;SDS011;42542;48.360;10.958;2023-09-19T03:53:02;5.13;;;1.50;;
56667;SDS011;42542;48.360;10.958;2023-09-19T03:56:04;5.07;;;1.48;;
56667;SDS011;42542;48.360;10.958;2023-09-19T03:59:08;4.43;;;1.20;;
56667;SDS011;42542;48.360;10.958;2023-09-19T04:02:10;5.05;;;1.50;;
56667;SDS011;42542;48.360;10.958;2023-09-19T04:05:24;4.40;;;1.40;;
56667;SDS011;42542;48.360;10.958;2023-09-19T04:08:26;6.50;;;1.60;;
56667;SDS011;42542;48.360;10.958;2023-09-19T04:11:29;6.05;;;1.42;;
56667;SDS011;42542;48.360;10.958;2023-09-19T04:14:32;4.63;;;1.20;;
56667;SDS011;42542;48.360;10.958;2023-09-19T04:17:35;5.57;;;1.30;;
56667;SDS011;42542;48.360;10.958;2023-09-19T04:20:37;5.65;;;1.35;;
56667;SDS011;42542;48.360;10.958;2023-09-19T04:23:40;5.35;;;1.33;;
56667;SDS011;42542;48.360;10.958;2023-09-19T04:26:42;5.77;;;1.27;;
56667;SDS011;42542;48.360;10.958;2023-09-19T04:29:44;5.03;;;1.30;;
56667;SDS011;42542;48.360;10.958;2023-09-19T04:32:46;4.50;;;1.40;;
56667;SDS011;42542;48.360;10.958;2023-09-19T04:35:51;5.97;;;1.27;;
56667;SDS011;42542;48.360;10.958;2023-09-19T04:38:53;4.90;;;1.40;;
56667;SDS011;42542;48.360;10.958;2023-09-19T04:41:55;5.95;;;1.40;;
56667;SDS011;42542;48.360;10.958;2023-09-19T04:44:56;5.90;;;1.50;;
56667;SDS011;42542;48.360;10.958;2023-09-19T04:47:59;4.72;;;1.33;;
56667;SDS011;42542;48.360;10.958;2023-09-19T04:51:00;5.80;;;1.70;;
56667;SDS011;42542;48.360;10.958;2023-09-19T04:54:03;4.78;;;1.40;;
56667;SDS011;42542;48.360;10.958;2023-09-19T04:57:05;4.07;;;1.30;;
56667;SDS011;42542;48.360;10.958;2023-09-19T05:00:07;5.45;;;1.50;;
56667;SDS011;42542;48.360;10.958;2023-09-19T05:03:13;6.38;;;1.35;;
56667;SDS011;42542;48.360;10.958;2023-09-19T05:06:16;5.10;;;1.50;;
56667;SDS011;42542;48.360;10.958;2023-09-19T05:09:17;5.22;;;1.35;;
56667;SDS011;42542;48.360;10.958;2023-09-19T05:12:21;4.38;;;1.30;;
56667;SDS011;42542;48.360;10.958;2023-09-19T05:15:23;5.80;;;1.55;;
56667;SDS011;42542;48.360;10.958;2023-09-19T05:18:25;4.82;;;1.30;;
56667;SDS011;42542;48.360;10.958;2023-09-19T05:21:27;5.03;;;1.40;;
56667;SDS011;42542;48.360;10.958;2023-09-19T05:24:32;6.25;;;1.70;;
56667;SDS011;42542;48.360;10.958;2023-09-19T05:27:34;6.25;;;1.50;;
56667;SDS011;42542;48.360;10.958;2023-09-19T05:30:36;6.05;;;1.50;;
56667;SDS011;42542;48.360;10.958;2023-09-19T05:33:40;4.60;;;1.43;;
56667;SDS011;42542;48.360;10.958;2023-09-19T05:36:43;6.05;;;1.40;;
56667;SDS011;42542;48.360;10.958;2023-09-19T05:39:44;5.28;;;1.30;;
56667;SDS011;42542;48.360;10.958;2023-09-19T05:42:47;6.57;;;1.50;;
56667;SDS011;42542;48.360;10.958;2023-09-19T05:45:49;5.10;;;1.50;;
56667;SDS011;42542;48.360;10.958;2023-09-19T05:48:54;5.68;;;1.27;;
56667;SDS011;42542;48.360;10.958;2023-09-19T05:51:57;5.50;;;1.40;;
56667;SDS011;42542;48.360;10.958;2023-09-19T05:55:02;4.20;;;1.30;;
56667;SDS011;42542;48.360;10.958;2023-09-19T05:58:06;5.20;;;1.40;;
56667;SDS011;42542;48.360;10.958;2023-09-19T06:01:10;4.55;;;1.27;;
56667;SDS011;42542;48.360;10.958;2023-09-19T06:04:15;4.00;;;1.23;;
56667;SDS011;42542;48.360;10.958;2023-09-19T06:07:18;6.38;;;1.50;;
56667;SDS011;42542;48.360;10.958;2023-09-19T06:10:20;4.75;;;1.33;;
56667;SDS011;42542;48.360;10.958;2023-09-19T06:13:25;6.17;;;1.30;;
56667;SDS011;42542;48.360;10.958;2023-09-19T06:16:29;4.00;;;1.20;;
56667;SDS011;42542;48.360;10.958;2023-09-19T06:19:33;4.15;;;1.20;;
56667;SDS011;42542;48.360;10.958;2023-09-19T06:22:36;5.90;;;1.45;;
56667;SDS011;42542;48.360;10.958;2023-09-19T06:25:40;5.30;;;1.40;;
56667;SDS011;42542;48.360;10.958;2023-09-19T06:28:42;4.00;;;1.20;;
56667;SDS011;42542;48.360;10.958;2023-09-19T06:31:45;6.15;;;1.10;;
56667;SDS011;42542;48.360;10.958;2023-09-19T06:34:51;5.95;;;1.23;;
56667;SDS011;42542;48.360;10.958;2023-09-19T06:37:56;5.07;;;1.40;;
56667;SDS011;42542;48.360;10.958;2023-09-19T06:41:00;4.95;;;1.10;;
56667;SDS011;42542;48.360;10.958;2023-09-19T06:44:03;4.70;;;1.30;;
56667;SDS011;42542;48.360;10.958;2023-09-19T06:47:05;5.00;;;1.10;;
56667;SDS011;42542;48.360;10.958;2023-09-19T06:50:08;4.60;;;1.40;;
56667;SDS011;42542;48.360;10.958;2023-09-19T06:53:14;4.85;;;1.63;;
56667;SDS011;42542;48.360;10.958;2023-09-19T06:56:18;5.22;;;1.45;;
56667;SDS011;42542;48.360;10.958;2023-09-19T06:59:19;4.13;;;1.20;;
56667;SDS011;42542;48.360;10.958;2023-09-19T07:02:22;3.67;;;1.17;;
56667;SDS011;42542;48.360;10.958;2023-09-19T07:05:24;6.40;;;1.30;;
56667;SDS011;42542;48.360;10.958;2023-09-19T07:08:26;4.07;;;0.97;;
56667;SDS011;42542;48.360;10.958;2023-09-19T07:11:29;4.90;;;1.30;;
56667;SDS011;42542;48.360;10.958;2023-09-19T07:14:32;5.15;;;1.20;;
56667;SDS011;42542;48.360;10.958;2023-09-19T07:17:34;4.55;;;1.25;;
56667;SDS011;42542;48.360;10.958;2023-09-19T07:20:37;4.82;;;1.20;;
56667;SDS011;42542;48.360;10.958;2023-09-19T07:23:39;4.20;;;1.20;;
56667;SDS011;42542;48.360;10.958;2023-09-19T07:26:42;5.53;;;1.10;;
56667;SDS011;42542;48.360;10.958;2023-09-19T07:29:44;7.00;;;1.38;;
56667;SDS011;42542;48.360;10.958;2023-09-19T07:32:51;4.53;;;1.20;;
56667;SDS011;42542;48.360;10.958;2023-09-19T07:35:53;4.85;;;1.20;;
56667;SDS011;42542;48.360;10.958;2023-09-19T07:38:55;4.47;;;1.23;;
56667;SDS011;42542;48.360;10.958;2023-09-19T07:42:13;4.47;;;1.20;;
56667;SDS011;42542;48.360;10.958;2023-09-19T07:45:19;4.78;;;1.20;;
56667;SDS011;42542;48.360;10.958;2023-09-19T07:48:21;3.83;;;1.15;;
56667;SDS011;42542;48.360;10.958;2023-09-19T07:51:23;3.67;;;1.17;;
56667;SDS011;42542;48.360;10.958;2023-09-19T07:54:25;5.00;;;1.00;;
56667;SDS011;42542;48.360;10.958;2023-09-19T07:57:32;5.13;;;1.15;;
56667;SDS011;42542;48.360;10.958;2023-09-19T08:00:35;4.20;;;1.10;;
56667;SDS011;42542;48.360;10.958;2023-09-19T08:03:39;4.43;;;1.10;;
56667;SDS011;42542;48.360;10.958;2023-09-19T08:06:43;3.67;;;1.20;;
56667;SDS011;42542;48.360;10.958;2023-09-19T08:09:46;3.67;;;1.10;;
56667;SDS011;42542;48.360;10.958;2023-09-19T08:12:48;4.75;;;1.20;;
56667;SDS011;42542;48.360;10.958;2023-09-19T08:15:58;4.07;;;1.40;;
56667;SDS011;42542;48.360;10.958;2023-09-19T08:19:00;6.10;;;1.40;;
56667;SDS011;42542;48.360;10.958;2023-09-19T08:22:02;4.80;;;1.10;;
56667;SDS011;42542;48.360;10.958;2023-09-19T08:25:04;5.87;;;1.00;;
56667;SDS011;42542;48.360;10.958;2023-09-19T08:28:08;5.32;;;1.02;;
56667;SDS011;42542;48.360;10.958;2023-09-19T08:31:14;3.90;;;1.10;;
56667;SDS011;42542;48.360;10.958;2023-09-19T08:34:16;4.90;;;1.30;;
56667;SDS011;42542;48.360;10.958;2023-09-19T08:37:18;3.78;;;1.00;;
56667;SDS011;42542;48.360;10.958;2023-09-19T08:40:20;5.40;;;1.03;;
56667;SDS011;42542;48.360;10.958;2023-09-19T08:43:22;5.07;;;1.13;;
56667;SDS011;42542;48.360;10.958;2023-09-19T08:46:26;4.10;;;1.23;;
56667;SDS011;42542;48.360;10.958;2023-09-19T08:49:36;3.85;;;1.10;;
56667;SDS011;42542;48.360;10.958;2023-09-19T08:52:42;3.55;;;0.90;;
56667;SDS011;42542;48.360;10.958;2023-09-19T08:55:44;3.50;;;1.00;;
56667;SDS011;42542;48.360;10.958;2023-09-19T08:58:51;4.47;;;0.90;;
56667;SDS011;42542;48.360;10.958;2023-09-19T09:01:57;4.60;;;1.10;;
56667;SDS011;42542;48.360;10.958;2023-09-19T09:05:00;4.10;;;1.00;;
56667;SDS011;42542;48.360;10.958;2023-09-19T09:08:04;3.45;;;0.98;;
56667;SDS011;42542;48.360;10.958;2023-09-19T09:11:07;4.93;;;0.97;;
56667;SDS011;42542;48.360;10.958;2023-09-19T09:14:09;4.30;;;0.98;;
56667;SDS011;42542;48.360;10.958;2023-09-19T09:17:13;3.55;;;1.02;;
56667;SDS011;42542;48.360;10.958;2023-09-19T09:20:16;3.45;;;1.00;;
56667;SDS011;42542;48.360;10.958;2023-09-19T09:23:20;4.53;;;1.33;;
56667;SDS011;42542;48.360;10.958;2023-09-19T09:26:40;3.90;;;1.00;;
56667;SDS011;42542;48.360;10.958;2023-09-19T09:29:48;5.07;;;0.98;;
56667;SDS011;42542;48.360;10.958;2023-09-19T09:33:07;4.30;;;0.98;;
56667;SDS011;42542;48.360;10.958;2023-09-19T09:36:13;3.72;;;0.90;;
56667;SDS011;42542;48.360;10.958;2023-09-19T09:39:29;3.80;;;1.00;;
56667;SDS011;42542;48.360;10.958;2023-09-19T09:42:34;3.63;;;0.90;;
56667;SDS011;42542;48.360;10.958;2023-09-19T09:45:40;3.72;;;1.00;;
56667;SDS011;42542;48.360;10.958;2023-09-19T09:52:17;3.38;;;0.93;;
56667;SDS011;42542;48.360;10.958;2023-09-19T09:55:19;3.75;;;0.90;;
56667;SDS011;42542;48.360;10.958;2023-09-19T09:58:22;4.33;;;1.00;;
56667;SDS011;42542;48.360;10.958;2023-09-19T10:01:45;4.82;;;1.10;;
56667;SDS011;42542;48.360;10.958;2023-09-19T10:04:51;4.10;;;1.00;;
56667;SDS011;42542;48.360;10.958;2023-09-19T10:08:10;4.22;;;0.80;;
56667;SDS011;42542;48.360;10.958;2023-09-19T10:11:23;3.60;;;1.00;;
56667;SDS011;42542;48.360;10.958;2023-09-19T10:14:41;3.95;;;0.98;;
56667;SDS011;42542;48.360;10.958;2023-09-19T10:17:49;3.65;;;1.00;;
56667;SDS011;42542;48.360;10.958;2023-09-19T10:20:52;3.55;;;0.90;;
56667;SDS011;42542;48.360;10.958;2023-09-19T10:23:54;4.47;;;1.10;;
56667;SDS011;42542;48.360;10.958;2023-09-19T10:26:59;3.80;;;1.00;;
56667;SDS011;42542;48.360;10.958;2023-09-19T10:30:02;4.65;;;1.20;;
56667;SDS011;42542;48.360;10.958;2023-09-19T10:33:09;3.72;;;1.10;;
56667;SDS011;42542;48.360;10.958;2023-09-19T10:36:11;3.58;;;1.00;;
56667;SDS011;42542;48.360;10.958;2023-09-19T10:39:15;3.75;;;1.00;;
56667;SDS011;42542;48.360;10.958;2023-09-19T10:42:20;4.27;;;1.10;;
56667;SDS011;42542;48.360;10.958;2023-09-19T10:45:27;4.80;;;1.10;;
56667;SDS011;42542;48.360;10.958;2023-09-19T10:48:31;3.95;;;1.23;;
56667;SDS011;42542;48.360;10.958;2023-09-19T10:51:38;3.70;;;1.17;;
56667;SDS011;42542;48.360;10.958;2023-09-19T10:54:43;4.57;;;1.25;;
56667;SDS011;42542;48.360;10.958;2023-09-19T10:57:54;5.07;;;1.13;;
56667;SDS011;42542;48.360;10.958;2023-09-19T11:01:12;3.88;;;1.10;;
56667;SDS011;42542;48.360;10.958;2023-09-19T11:04:27;3.95;;;1.20;;
56667;SDS011;42542;48.360;10.958;2023-09-19T11:07:33;4.40;;;1.20;;
56667;SDS011;42542;48.360;10.958;2023-09-19T11:10:59;5.78;;;1.30;;
56667;SDS011;42542;48.360;10.958;2023-09-19T11:17:32;4.35;;;1.30;;
56667;SDS011;42542;48.360;10.958;2023-09-19T11:20:46;4.00;;;1.10;;
56667;SDS011;42542;48.360;10.958;2023-09-19T11:27:32;5.15;;;1.17;;
56667;SDS011;42542;48.360;10.958;2023-09-19T11:30:37;4.93;;;1.30;;
56667;SDS011;42542;48.360;10.958;2023-09-19T11:33:39;4.55;;;1.30;;
56667;SDS011;42542;48.360;10.958;2023-09-19T11:36:48;3.80;;;1.10;;
56667;SDS011;42542;48.360;10.958;2023-09-19T11:40:06;4.00;;;1.20;;
56667;SDS011;42542;48.360;10.958;2023-09-19T11:43:28;4.10;;;1.15;;
56667;SDS011;42542;48.360;10.958;2023-09-19T11:49:52;3.92;;;1.23;;
56667;SDS011;42542;48.360;10.958;2023-09-19T11:52:54;4.72;;;1.30;;
56667;SDS011;42542;48.360;10.958;2023-09-19T11:55:56;6.38;;;1.30;;
56667;SDS011;42542;48.360;10.958;2023-09-19T11:59:01;5.00;;;1.20;;
56667;SDS011;42542;48.360;10.958;2023-09-19T12:02:05;4.70;;;1.20;;
56667;SDS011;42542;48.360;10.958;2023-09-19T12:05:10;4.38;;;1.20;;
56667;SDS011;42542;48.360;10.958;2023-09-19T12:08:12;4.78;;;1.20;;
56667;SDS011;42542;48.360;10.958;2023-09-19T12:11:17;5.72;;;1.17;;
56667;SDS011;42542;48.360;10.958;2023-09-19T12:14:23;6.15;;;1.17;;
56667;SDS011;42542;48.360;10.958;2023-09-19T12:17:36;3.90;;;1.17;;
56667;SDS011;42542;48.360;10.958;2023-09-19T12:20:42;3.75;;;1.10;;
56667;SDS011;42542;48.360;10.958;2023-09-19T12:24:25;4.15;;;1.30;;
56667;SDS011;42542;48.360;10.958;2023-09-19T12:27:21;4.88;;;1.25;;
56667;SDS011;42542;48.360;10.958;2023-09-19T12:30:27;4.30;;;1.30;;
56667;SDS011;42542;48.360;10.958;2023-09-19T12:33:35;4.77;;;1.30;;
56667;SDS011;42542;48.360;10.958;2023-09-19T12:36:38;3.88;;;1.20;;
56667;SDS011;42542;48.360;10.958;2023-09-19T12:39:42;4.95;;;1.30;;
56667;SDS011;42542;48.360;10.958;2023-09-19T12:42:56;3.80;;;1.02;;
56667;SDS011;42542;48.360;10.958;2023-09-19T12:46:05;4.57;;;1.00;;
56667;SDS011;42542;48.360;10.958;2023-09-19T12:49:16;3.37;;;1.10;;
56667;SDS011;42542;48.360;10.958;2023-09-19T12:52:19;4.63;;;1.20;;
56667;SDS011;42542;48.360;10.958;2023-09-19T12:55:22;3.47;;;1.13;;
56667;SDS011;42542;48.360;10.958;2023-09-19T12:58:26;4.15;;;1.10;;
56667;SDS011;42542;48.360;10.958;2023-09-19T13:01:29;3.92;;;1.20;;
56667;SDS011;42542;48.360;10.958;2023-09-19T13:04:32;5.20;;;1.20;;
56667;SDS011;42542;48.360;10.958;2023-09-19T13:07:39;4.43;;;1.40;;
56667;SDS011;42542;48.360;10.958;2023-09-19T13:11:01;4.40;;;1.27;;
56667;SDS011;42542;48.360;10.958;2023-09-19T13:14:18;4.25;;;1.30;;
56667;SDS011;42542;48.360;10.958;2023-09-19T13:17:20;3.80;;;1.08;;
56667;SDS011;42542;48.360;10.958;2023-09-19T13:20:25;4.33;;;1.20;;
56667;SDS011;42542;48.360;10.958;2023-09-19T13:23:34;7.32;;;1.27;;
56667;SDS011;42542;48.360;10.958;2023-09-19T13:26:36;4.30;;;1.10;;
56667;SDS011;42542;48.360;10.958;2023-09-19T13:29:40;5.03;;;1.10;;
56667;SDS011;42542;48.360;10.958;2023-09-19T13:32:42;7.03;;;1.30;;
56667;SDS011;42542;48.360;10.958;2023-09-19T13:35:46;3.73;;;1.20;;
56667;SDS011;42542;48.360;10.958;2023-09-19T13:38:49;6.88;;;1.20;;
56667;SDS011;42542;48.360;10.958;2023-09-19T13:41:51;3.88;;;1.15;;
56667;SDS011;42542;48.360;10.958;2023-09-19T13:44:52;5.57;;;1.33;;
56667;SDS011;42542;48.360;10.958;2023-09-19T13:47:54;4.30;;;1.20;;
56667;SDS011;42542;48.360;10.958;2023-09-19T13:50:56;5.30;;;1.20;;
56667;SDS011;42542;48.360;10.958;2023-09-19T13:53:58;4.18;;;1.20;;
56667;SDS011;42542;48.360;10.958;2023-09-19T13:57:00;4.20;;;1.05;;
56667;SDS011;42542;48.360;10.958;2023-09-19T14:00:03;3.70;;;1.20;;
56667;SDS011;42542;48.360;10.958;2023-09-19T14:03:12;4.10;;;1.13;;
56667;SDS011;42542;48.360;10.958;2023-09-19T14:06:17;4.20;;;1.10;;
56667;SDS011;42542;48.360;10.958;2023-09-19T14:09:19;4.63;;;1.30;;
56667;SDS011;42542;48.360;10.958;2023-09-19T14:12:22;4.35;;;1.20;;
56667;SDS011;42542;48.360;10.958;2023-09-19T14:15:23;4.30;;;1.20;;
56667;SDS011;42542;48.360;10.958;2023-09-19T14:18:31;5.15;;;1.10;;
56667;SDS011;42542;48.360;10.958;2023-09-19T14:21:33;3.77;;;1.10;;
56667;SDS011;42542;48.360;10.958;2023-09-19T14:24:38;4.27;;;1.00;;
56667;SDS011;42542;48.360;10.958;2023-09-19T14:27:40;4.30;;;1.20;;
56667;SDS011;42542;48.360;10.958;2023-09-19T14:30:43;4.65;;;1.23;;
56667;SDS011;42542;48.360;10.958;2023-09-19T14:33:45;3.58;;;1.10;;
56667;SDS011;42542;48.360;10.958;2023-09-19T14:36:47;4.77;;;1.30;;
56667;SDS011;42542;48.360;10.958;2023-09-19T14:39:51;4.23;;;1.20;;
56667;SDS011;42542;48.360;10.958;2023-09-19T14:42:52;3.65;;;1.00;;
56667;SDS011;42542;48.360;10.958;2023-09-19T14:46:07;4.25;;;1.30;;
56667;SDS011;42542;48.360;10.958;2023-09-19T14:49:11;4.22;;;1.30;;
56667;SDS011;42542;48.360;10.958;2023-09-19T14:52:14;5.63;;;1.30;;
56667;SDS011;42542;48.360;10.958;2023-09-19T14:55:17;5.20;;;1.40;;
56667;SDS011;42542;48.360;10.958;2023-09-19T14:58:22;4.03;;;1.30;;
56667;SDS011;42542;48.360;10.958;2023-09-19T15:01:27;4.30;;;1.20;;
56667;SDS011;42542;48.360;10.958;2023-09-19T15:04:29;4.28;;;1.27;;
56667;SDS011;42542;48.360;10.958;2023-09-19T15:07:31;3.60;;;1.27;;
56667;SDS011;42542;48.360;10.958;2023-09-19T15:10:33;4.77;;;1.30;;
56667;SDS011;42542;48.360;10.958;2023-09-19T15:13:36;4.10;;;1.40;;
56667;SDS011;42542;48.360;10.958;2023-09-19T15:16:38;4.95;;;1.30;;
56667;SDS011;42542;48.360;10.958;2023-09-19T15:19:42;10.35;;;1.52;;
56667;SDS011;42542;48.360;10.958;2023-09-19T15:22:44;4.70;;;1.30;;
56667;SDS011;42542;48.360;10.958;2023-09-19T15:25:48;6.80;;;1.37;;
56667;SDS011;42542;48.360;10.958;2023-09-19T15:28:51;4.60;;;1.50;;
56667;SDS011;42542;48.360;10.958;2023-09-19T15:31:56;5.45;;;1.35;;
56667;SDS011;42542;48.360;10.958;2023-09-19T15:35:03;3.75;;;1.20;;
56667;SDS011;42542;48.360;10.958;2023-09-19T15:38:05;4.63;;;1.27;;
56667;SDS011;42542;48.360;10.958;2023-09-19T15:41:11;4.17;;;1.20;;
56667;SDS011;42542;48.360;10.958;2023-09-19T15:44:15;4.43;;;1.40;;
56667;SDS011;42542;48.360;10.958;2023-09-19T15:47:19;4.32;;;1.45;;
56667;SDS011;42542;48.360;10.958;2023-09-19T15:50:22;6.32;;;1.50;;
56667;SDS011;42542;48.360;10.958;2023-09-19T15:53:24;4.07;;;1.30;;
56667;SDS011;42542;48.360;10.958;2023-09-19T15:56:26;4.83;;;1.50;;
56667;SDS011;42542;48.360;10.958;2023-09-19T15:59:28;4.35;;;1.50;;
56667;SDS011;42542;48.360;10.958;2023-09-19T16:02:31;4.20;;;1.30;;
56667;SDS011;42542;48.360;10.958;2023-09-19T16:05:36;4.03;;;1.20;;
56667;SDS011;42542;48.360;10.958;2023-09-19T16:08:41;4.93;;;1.50;;
56667;SDS011;42542;48.360;10.958;2023-09-19T16:11:43;4.73;;;1.17;;
56667;SDS011;42542;48.360;10.958;2023-09-19T16:14:45;4.35;;;1.40;;
56667;SDS011;42542;48.360;10.958;2023-09-19T16:17:47;5.15;;;1.50;;
56667;SDS011;42542;48.360;10.958;2023-09-19T16:20:49;3.88;;;1.40;;
56667;SDS011;42542;48.360;10.958;2023-09-19T16:23:51;5.23;;;1.50;;
56667;SDS011;42542;48.360;10.958;2023-09-19T16:26:55;3.95;;;1.30;;
56667;SDS011;42542;48.360;10.958;2023-09-19T16:29:57;5.82;;;1.38;;
56667;SDS011;42542;48.360;10.958;2023-09-19T16:32:59;5.13;;;1.40;;
56667;SDS011;42542;48.360;10.958;2023-09-19T16:36:01;4.53;;;1.30;;
56667;SDS011;42542;48.360;10.958;2023-09-19T16:39:04;4.80;;;1.33;;
56667;SDS011;42542;48.360;10.958;2023-09-19T16:42:08;5.03;;;1.40;;
56667;SDS011;42542;48.360;10.958;2023-09-19T16:45:21;4.32;;;1.30;;
56667;SDS011;42542;48.360;10.958;2023-09-19T16:48:24;4.90;;;1.40;;
56667;SDS011;42542;48.360;10.958;2023-09-19T16:51:27;5.45;;;1.40;;
56667;SDS011;42542;48.360;10.958;2023-09-19T16:54:30;4.13;;;1.40;;
56667;SDS011;42542;48.360;10.958;2023-09-19T16:57:32;4.20;;;1.30;;
56667;SDS011;42542;48.360;10.958;2023-09-19T17:00:35;6.45;;;1.48;;
56667;SDS011;42542;48.360;10.958;2023-09-19T17:03:39;4.35;;;1.25;;
56667;SDS011;42542;48.360;10.958;2023-09-19T17:06:42;4.82;;;1.42;;
56667;SDS011;42542;48.360;10.958;2023-09-19T17:09:48;4.53;;;1.30;;
56667;SDS011;42542;48.360;10.958;2023-09-19T17:12:50;4.25;;;1.30;;
56667;SDS011;42542;48.360;10.958;2023-09-19T17:16:03;4.43;;;1.40;;
56667;SDS011;42542;48.360;10.958;2023-09-19T17:19:06;4.55;;;1.35;;
56667;SDS011;42542;48.360;10.958;2023-09-19T17:22:10;5.55;;;1.60;;
56667;SDS011;42542;48.360;10.958;2023-09-19T17:25:11;5.43;;;1.57;;
56667;SDS011;42542;48.360;10.958;2023-09-19T17:28:14;5.25;;;1.40;;
56667;SDS011;42542;48.360;10.958;2023-09-19T17:31:17;4.35;;;1.38;;
56667;SDS011;42542;48.360;10.958;2023-09-19T17:34:24;7.95;;;1.48;;
56667;SDS011;42542;48.360;10.958;2023-09-19T17:37:26;5.03;;;1.52;;
56667;SDS011;42542;48.360;10.958;2023-09-19T17:40:28;5.63;;;1.50;;
56667;SDS011;42542;48.360;10.958;2023-09-19T17:43:31;5.35;;;1.40;;
56667;SDS011;42542;48.360;10.958;2023-09-19T17:46:35;5.10;;;1.45;;
56667;SDS011;42542;48.360;10.958;2023-09-19T17:49:40;5.47;;;1.40;;
56667;SDS011;42542;48.360;10.958;2023-09-19T17:52:43;4.32;;;1.40;;
56667;SDS011;42542;48.360;10.958;2023-09-19T17:55:46;5.70;;;1.60;;
56667;SDS011;42542;48.360;10.958;2023-09-19T17:58:51;5.53;;;1.52;;
56667;SDS011;42542;48.360;10.958;2023-09-19T18:01:59;5.40;;;1.60;;
56667;SDS011;42542;48.360;10.958;2023-09-19T18:05:01;4.97;;;1.60;;
56667;SDS011;42542;48.360;10.958;2023-09-19T18:08:03;7.07;;;1.70;;
56667;SDS011;42542;48.360;10.958;2023-09-19T18:11:15;5.40;;;1.77;;
56667;SDS011;42542;48.360;10.958;2023-09-19T18:14:22;6.30;;;1.77;;
56667;SDS011;42542;48.360;10.958;2023-09-19T18:17:33;6.07;;;1.80;;
56667;SDS011;42542;48.360;10.958;2023-09-19T18:20:49;7.28;;;1.77;;
56667;SDS011;42542;48.360;10.958;2023-09-19T18:23:58;5.20;;;1.70;;
56667;SDS011;42542;48.360;10.958;2023-09-19T18:27:11;5.30;;;1.60;;
56667;SDS011;42542;48.360;10.958;2023-09-19T18:30:16;6.68;;;1.70;;
56667;SDS011;42542;48.360;10.958;2023-09-19T18:33:19;5.68;;;2.13;;
56667;SDS011;42542;48.360;10.958;2023-09-19T18:36:22;5.28;;;2.08;;
56667;SDS011;42542;48.360;10.958;2023-09-19T18:39:24;5.80;;;2.28;;
56667;SDS011;42542;48.360;10.958;2023-09-19T18:42:27;6.40;;;2.20;;
56667;SDS011;42542;48.360;10.958;2023-09-19T18:45:31;5.75;;;2.25;;
56667;SDS011;42542;48.360;10.958;2023-09-19T18:48:42;6.35;;;2.63;;
56667;SDS011;42542;48.360;10.958;2023-09-19T18:51:46;6.78;;;2.20;;